Time;durP1;ratioP1;P1;durP2;ratioP2;P2;SDS_P1;SDS_P2;PMS_P1;PMS_P2;Temp;Humidity;BMP_temperature;BMP_pressure;BME280_temperature;BME280_humidity;BME280_pressure;Samples;Min_cycle;Max_cycle;Signal;HPM_P1;HPM_P2
2022/11/15 00:00:58;;;;;;;75.35;29.27;;;;;;;;;;6277403;22;20000;-82
2022/11/15 00:03:26;;;;;;;77.57;29.75;;;;;;;;;;6277297;22;20002;-83
2022/11/15 00:05:52;;;;;;;73.95;28.35;;;;;;;;;;6251734;22;19995;-83
2022/11/15 00:08:18;;;;;;;72.60;29.75;;;;;;;;;;6278422;22;20004;-82
2022/11/15 00:10:54;;;;;;;87.95;31.70;;;;;;;;;;6249899;22;20605;-83
2022/11/15 00:13:19;;;;;;;95.72;31.17;;;;;;;;;;6252220;22;20046;-84
2022/11/15 00:15:45;;;;;;;76.13;31.25;;;;;;;;;;6251231;22;20498;-83
2022/11/15 00:18:15;;;;;;;77.22;29.30;;;;;;;;;;6277173;22;20000;-82
2022/11/15 00:20:41;;;;;;;78.65;30.10;;;;;;;;;;6251933;22;20049;-83
2022/11/15 00:23:07;;;;;;;86.10;30.63;;;;;;;;;;6280047;22;20008;-83
2022/11/15 00:25:34;;;;;;;71.15;30.38;;;;;;;;;;6253600;22;20011;-83
2022/11/15 00:28:00;;;;;;;81.45;28.95;;;;;;;;;;6254160;22;20042;-83
2022/11/15 00:30:27;;;;;;;76.60;28.90;;;;;;;;;;6279597;22;19999;-82
2022/11/15 00:32:53;;;;;;;72.53;29.83;;;;;;;;;;6279764;22;20333;-83
2022/11/15 00:35:19;;;;;;;85.80;30.80;;;;;;;;;;6279807;22;20007;-83
2022/11/15 00:37:47;;;;;;;83.63;31.15;;;;;;;;;;6280351;22;20332;-82
2022/11/15 00:40:13;;;;;;;71.82;29.83;;;;;;;;;;6252542;22;20003;-82
2022/11/15 00:42:39;;;;;;;81.90;28.98;;;;;;;;;;6279519;22;20031;-83
2022/11/15 00:45:06;;;;;;;74.55;28.42;;;;;;;;;;6277890;22;20015;-82
2022/11/15 00:47:32;;;;;;;91.20;32.20;;;;;;;;;;6251686;22;20428;-83
2022/11/15 00:49:58;;;;;;;88.28;32.28;;;;;;;;;;6278851;22;20054;-83
2022/11/15 00:52:24;;;;;;;89.90;32.30;;;;;;;;;;6252880;22;20008;-83
2022/11/15 00:54:50;;;;;;;89.97;32.40;;;;;;;;;;6279506;22;20051;-83
2022/11/15 00:57:16;;;;;;;86.82;31.08;;;;;;;;;;6252498;22;20339;-83
2022/11/15 00:59:42;;;;;;;91.35;32.85;;;;;;;;;;6252477;22;20032;-83
2022/11/15 01:02:08;;;;;;;101.35;33.25;;;;;;;;;;6279164;22;20019;-83
2022/11/15 01:04:34;;;;;;;81.70;31.73;;;;;;;;;;6252214;22;20008;-82
2022/11/15 01:07:00;;;;;;;83.28;30.90;;;;;;;;;;6278729;22;20002;-83
2022/11/15 01:09:26;;;;;;;89.63;32.13;;;;;;;;;;6252391;22;19999;-83
2022/11/15 01:11:52;;;;;;;92.00;33.05;;;;;;;;;;6278283;22;20010;-84
2022/11/15 01:14:18;;;;;;;86.70;34.15;;;;;;;;;;6278939;22;20400;-83
2022/11/15 01:16:44;;;;;;;94.82;34.10;;;;;;;;;;6251800;22;20015;-84
2022/11/15 01:19:10;;;;;;;91.78;33.20;;;;;;;;;;6278802;22;20055;-83
2022/11/15 01:21:36;;;;;;;94.20;33.20;;;;;;;;;;6279058;22;20087;-84
2022/11/15 01:24:02;;;;;;;95.40;31.63;;;;;;;;;;6251864;22;20000;-84
2022/11/15 01:26:28;;;;;;;96.25;32.63;;;;;;;;;;6279289;22;20440;-82
2022/11/15 01:28:55;;;;;;;87.13;31.60;;;;;;;;;;6250432;22;20098;-82
2022/11/15 01:31:22;;;;;;;88.18;32.42;;;;;;;;;;6252419;22;20414;-82
2022/11/15 01:33:48;;;;;;;97.35;33.53;;;;;;;;;;6252016;22;19995;-82
2022/11/15 01:36:18;;;;;;;106.93;33.40;;;;;;;;;;6278451;22;20011;-84
2022/11/15 01:38:44;;;;;;;93.63;32.17;;;;;;;;;;6278704;22;20004;-82
2022/11/15 01:41:17;;;;;;;90.20;34.10;;;;;;;;;;6284629;22;20008;-81
2022/11/15 01:43:43;;;;;;;115.07;33.63;;;;;;;;;;6280234;22;19996;-82
2022/11/15 01:46:09;;;;;;;99.68;34.13;;;;;;;;;;6278379;22;20444;-82
2022/11/15 01:48:35;;;;;;;96.40;33.55;;;;;;;;;;6279011;22;20023;-83
2022/11/15 01:51:03;;;;;;;103.50;34.50;;;;;;;;;;6252873;22;20460;-84
2022/11/15 01:53:30;;;;;;;100.88;34.85;;;;;;;;;;6278507;22;20026;-82
2022/11/15 01:55:56;;;;;;;103.07;35.60;;;;;;;;;;6251159;22;20359;-83
2022/11/15 01:58:22;;;;;;;111.25;34.85;;;;;;;;;;6279605;22;19996;-83
2022/11/15 02:00:49;;;;;;;111.18;36.35;;;;;;;;;;6278149;22;20007;-83
2022/11/15 02:03:15;;;;;;;105.00;36.13;;;;;;;;;;6251644;22;20073;-82
2022/11/15 02:05:42;;;;;;;114.07;35.42;;;;;;;;;;6251113;22;20376;-82
2022/11/15 02:08:19;;;;;;;97.63;34.50;;;;;;;;;;6250481;22;20428;-82
2022/11/15 02:10:45;;;;;;;91.75;34.50;;;;;;;;;;6251135;22;20013;-83
2022/11/15 02:13:11;;;;;;;99.18;34.05;;;;;;;;;;6251252;22;20038;-84
2022/11/15 02:15:40;;;;;;;97.15;31.42;;;;;;;;;;6250847;22;20018;-83
2022/11/15 02:18:15;;;;;;;110.20;34.70;;;;;;;;;;6278390;22;19999;-83
2022/11/15 02:20:43;;;;;;;92.75;32.25;;;;;;;;;;6250286;22;20029;-82
2022/11/15 02:23:19;;;;;;;96.70;33.30;;;;;;;;;;6278793;22;20031;-85
2022/11/15 02:26:00;;;;;;;96.32;30.77;;;;;;;;;;6288710;22;20018;-83
2022/11/15 02:28:48;;;;;;;110.82;36.97;;;;;;;;;;6303571;22;19984;-83
2022/11/15 02:31:21;;;;;;;103.55;32.65;;;;;;;;;;6286631;22;20008;-82
2022/11/15 02:34:02;;;;;;;96.43;31.00;;;;;;;;;;6252779;22;20065;-83
2022/11/15 02:36:39;;;;;;;97.80;32.53;;;;;;;;;;6251897;22;20094;-84
2022/11/15 02:39:11;;;;;;;95.10;32.95;;;;;;;;;;6278679;22;20395;-83
2022/11/15 02:41:45;;;;;;;89.90;31.40;;;;;;;;;;6251186;22;20506;-82
2022/11/15 02:44:17;;;;;;;93.55;33.63;;;;;;;;;;6278646;22;20435;-83
2022/11/15 02:47:13;;;;;;;93.85;34.33;;;;;;;;;;6251631;22;20004;-83
2022/11/15 02:49:40;;;;;;;84.55;30.88;;;;;;;;;;6251825;22;20395;-82
2022/11/15 02:52:06;;;;;;;82.25;33.92;;;;;;;;;;6278713;22;20003;-82
2022/11/15 02:54:33;;;;;;;84.82;30.17;;;;;;;;;;6251163;22;20082;-82
2022/11/15 02:57:04;;;;;;;90.13;31.98;;;;;;;;;;6251665;22;20008;-82
2022/11/15 02:59:36;;;;;;;82.03;30.70;;;;;;;;;;6279147;22;20011;-84
2022/11/15 03:02:05;;;;;;;89.47;30.27;;;;;;;;;;6251402;22;20012;-82
2022/11/15 03:04:34;;;;;;;86.32;30.58;;;;;;;;;;6278559;22;20030;-82
2022/11/15 03:07:04;;;;;;;84.53;28.20;;;;;;;;;;6251757;22;20006;-82
2022/11/15 03:09:56;;;;;;;86.88;29.73;;;;;;;;;;6251136;22;20039;-82
2022/11/15 03:12:25;;;;;;;80.28;30.08;;;;;;;;;;6100845;23;20010;-83
2022/11/15 03:14:58;;;;;;;84.20;28.05;;;;;;;;;;6124992;23;20129;-83
2022/11/15 03:17:26;;;;;;;85.60;28.70;;;;;;;;;;6125508;23;20093;-83
2022/11/15 03:19:57;;;;;;;87.15;29.75;;;;;;;;;;6100387;23;20033;-83
2022/11/15 03:22:25;;;;;;;89.82;31.60;;;;;;;;;;6125146;23;20009;-82
2022/11/15 03:24:54;;;;;;;75.28;29.75;;;;;;;;;;6099509;23;20010;-83
2022/11/15 03:27:22;;;;;;;93.35;32.42;;;;;;;;;;6126414;23;20447;-85
2022/11/15 03:29:51;;;;;;;89.82;32.25;;;;;;;;;;6100408;23;20006;-84
2022/11/15 03:32:19;;;;;;;95.15;31.52;;;;;;;;;;6101452;23;20006;-84
2022/11/15 03:34:50;;;;;;;98.00;34.85;;;;;;;;;;6100780;23;20088;-83
2022/11/15 03:37:17;;;;;;;102.65;33.90;;;;;;;;;;6106477;23;20116;-83
2022/11/15 03:39:43;;;;;;;116.38;33.67;;;;;;;;;;6104240;23;20328;-85
2022/11/15 03:42:15;;;;;;;96.30;32.33;;;;;;;;;;6126498;23;20032;-84
2022/11/15 03:44:57;;;;;;;104.05;34.75;;;;;;;;;;6101673;23;20435;-83
2022/11/15 03:47:44;;;;;;;99.55;32.55;;;;;;;;;;6100436;23;20470;-84
2022/11/15 03:50:15;;;;;;;101.32;31.70;;;;;;;;;;6211102;23;20007;-84
2022/11/15 03:52:41;;;;;;;96.15;29.88;;;;;;;;;;6222576;23;20007;-83
2022/11/15 03:55:10;;;;;;;100.45;33.05;;;;;;;;;;6249897;23;20023;-83
2022/11/15 03:57:36;;;;;;;110.50;31.95;;;;;;;;;;6249209;23;20000;-84
2022/11/15 04:00:02;;;;;;;95.32;34.05;;;;;;;;;;6250128;23;20059;-85
2022/11/15 04:02:28;;;;;;;107.32;31.88;;;;;;;;;;6250082;23;20004;-85
2022/11/15 04:04:54;;;;;;;103.30;31.63;;;;;;;;;;6223168;23;20015;-85
2022/11/15 04:07:20;;;;;;;93.95;32.60;;;;;;;;;;6250668;23;19996;-83
2022/11/15 04:10:05;;;;;;;95.78;31.67;;;;;;;;;;6249761;23;20066;-84
2022/11/15 04:12:35;;;;;;;98.78;31.95;;;;;;;;;;6225123;23;20083;-85
2022/11/15 04:15:09;;;;;;;112.15;32.88;;;;;;;;;;6222874;23;20004;-85
2022/11/15 04:17:36;;;;;;;95.90;31.20;;;;;;;;;;6224017;23;20000;-85
2022/11/15 04:25:32;;;;;;;100.93;33.40;;;;;;;;;;6261036;23;20023;-84
2022/11/15 04:27:58;;;;;;;103.57;33.00;;;;;;;;;;6245658;23;20443;-84
2022/11/15 04:30:24;;;;;;;104.55;33.70;;;;;;;;;;6246438;22;20015;-84
2022/11/15 04:32:50;;;;;;;103.18;34.80;;;;;;;;;;6245295;23;20009;-84
2022/11/15 04:35:16;;;;;;;94.55;30.35;;;;;;;;;;6270577;23;19988;-84
2022/11/15 04:37:42;;;;;;;110.70;33.83;;;;;;;;;;6225547;23;20011;-85
2022/11/15 04:40:08;;;;;;;81.45;28.58;;;;;;;;;;6252525;23;20004;-84
2022/11/15 04:42:34;;;;;;;109.72;31.75;;;;;;;;;;6250543;23;20014;-85
2022/11/15 04:45:00;;;;;;;106.53;31.67;;;;;;;;;;6235984;23;20086;-84
2022/11/15 04:47:27;;;;;;;110.35;34.17;;;;;;;;;;6249412;23;20106;-85
2022/11/15 04:49:53;;;;;;;92.60;31.95;;;;;;;;;;6250016;22;20000;-84
2022/11/15 04:52:19;;;;;;;97.32;30.85;;;;;;;;;;6249876;23;20087;-85
2022/11/15 04:54:45;;;;;;;95.78;29.75;;;;;;;;;;6249603;23;20078;-84
2022/11/15 04:57:11;;;;;;;100.85;30.92;;;;;;;;;;6253290;23;20015;-84
2022/11/15 04:59:37;;;;;;;97.32;31.45;;;;;;;;;;6270016;23;20007;-84
2022/11/15 05:02:03;;;;;;;87.68;31.73;;;;;;;;;;6268599;23;20008;-85
2022/11/15 05:04:29;;;;;;;92.80;30.40;;;;;;;;;;6268789;23;20007;-84
2022/11/15 05:06:55;;;;;;;90.88;30.35;;;;;;;;;;6253470;23;20036;-85
2022/11/15 05:09:22;;;;;;;86.90;29.05;;;;;;;;;;6247903;23;20063;-85
2022/11/15 05:11:48;;;;;;;90.63;29.08;;;;;;;;;;6250339;23;19997;-85
2022/11/15 05:14:14;;;;;;;103.70;32.90;;;;;;;;;;6246314;23;20094;-84
2022/11/15 05:16:40;;;;;;;77.25;27.70;;;;;;;;;;6250085;23;19996;-85
2022/11/15 05:19:06;;;;;;;87.25;30.52;;;;;;;;;;6251501;23;20038;-84
2022/11/15 05:21:33;;;;;;;95.47;29.17;;;;;;;;;;6250049;23;20433;-85
2022/11/15 05:23:59;;;;;;;103.47;30.65;;;;;;;;;;6250967;23;20388;-84
2022/11/15 05:26:25;;;;;;;90.60;31.88;;;;;;;;;;6250258;23;20021;-85
2022/11/15 05:28:55;;;;;;;96.35;30.70;;;;;;;;;;6253322;23;20387;-85
2022/11/15 05:31:21;;;;;;;91.22;30.63;;;;;;;;;;6253491;23;19996;-84
2022/11/15 05:33:47;;;;;;;100.85;33.80;;;;;;;;;;6252793;23;20012;-84
2022/11/15 05:36:25;;;;;;;93.57;30.83;;;;;;;;;;6252279;23;20011;-85
2022/11/15 05:38:51;;;;;;;93.45;29.38;;;;;;;;;;6251658;23;20014;-84
2022/11/15 05:41:18;;;;;;;99.32;32.80;;;;;;;;;;6251308;23;19996;-85
2022/11/15 05:43:45;;;;;;;82.75;30.08;;;;;;;;;;6253745;22;20118;-85
2022/11/15 05:46:12;;;;;;;89.85;32.28;;;;;;;;;;6283149;22;19999;-85
2022/11/15 05:48:41;;;;;;;92.57;30.25;;;;;;;;;;6266141;22;19988;-83
2022/11/15 05:51:07;;;;;;;91.35;30.17;;;;;;;;;;6300559;22;19996;-83
2022/11/15 05:53:33;;;;;;;78.07;28.40;;;;;;;;;;6288641;22;20031;-85
2022/11/15 05:55:59;;;;;;;92.95;31.77;;;;;;;;;;6257285;22;20014;-85
2022/11/15 05:58:25;;;;;;;107.82;32.10;;;;;;;;;;6283133;22;20007;-84
2022/11/15 06:00:51;;;;;;;114.15;32.88;;;;;;;;;;6282398;22;20061;-83
2022/11/15 06:03:17;;;;;;;107.80;32.53;;;;;;;;;;6282376;22;20003;-85
2022/11/15 06:05:43;;;;;;;100.45;32.20;;;;;;;;;;6255984;22;20003;-84
2022/11/15 06:08:09;;;;;;;97.78;33.67;;;;;;;;;;6280669;22;20384;-85
2022/11/15 06:10:35;;;;;;;95.45;32.10;;;;;;;;;;6253838;22;20056;-84
2022/11/15 06:13:02;;;;;;;106.25;32.72;;;;;;;;;;6280638;22;20010;-84
2022/11/15 06:15:28;;;;;;;103.43;32.88;;;;;;;;;;6284639;22;20004;-84
2022/11/15 06:17:58;;;;;;;107.25;34.15;;;;;;;;;;6256507;22;20003;-84
2022/11/15 06:20:25;;;;;;;101.85;36.03;;;;;;;;;;6286500;22;20443;-85
2022/11/15 06:22:51;;;;;;;112.20;35.22;;;;;;;;;;6285361;22;20050;-85
2022/11/15 06:25:17;;;;;;;109.60;35.92;;;;;;;;;;6257872;22;20000;-84
2022/11/15 06:27:43;;;;;;;105.00;34.00;;;;;;;;;;6287922;22;20030;-84
2022/11/15 06:30:09;;;;;;;107.05;34.85;;;;;;;;;;6283726;22;19996;-86
2022/11/15 06:32:35;;;;;;;95.40;32.20;;;;;;;;;;6257002;22;20031;-85
2022/11/15 06:35:01;;;;;;;108.88;35.15;;;;;;;;;;6284405;22;20045;-85
2022/11/15 06:37:27;;;;;;;116.63;35.95;;;;;;;;;;6254925;22;20003;-84
2022/11/15 06:39:53;;;;;;;102.30;35.63;;;;;;;;;;6283124;22;20080;-85
2022/11/15 06:42:19;;;;;;;118.07;38.85;;;;;;;;;;6258054;22;20014;-85
2022/11/15 06:44:45;;;;;;;113.45;36.42;;;;;;;;;;6285608;22;20007;-84
2022/11/15 06:47:11;;;;;;;121.90;35.85;;;;;;;;;;6258669;22;20026;-85
2022/11/15 06:49:37;;;;;;;118.25;39.25;;;;;;;;;;6256264;22;20489;-85
2022/11/15 06:52:03;;;;;;;141.05;37.50;;;;;;;;;;6286977;22;19999;-84
2022/11/15 06:54:29;;;;;;;113.93;35.92;;;;;;;;;;6258254;22;20051;-85
2022/11/15 06:56:55;;;;;;;113.07;37.17;;;;;;;;;;6259515;22;20004;-85
2022/11/15 06:59:21;;;;;;;109.68;36.08;;;;;;;;;;6257942;22;20004;-84
2022/11/15 07:01:47;;;;;;;127.50;38.58;;;;;;;;;;6283001;22;19996;-84
2022/11/15 07:04:13;;;;;;;111.45;36.00;;;;;;;;;;6256657;22;20006;-85
2022/11/15 07:06:39;;;;;;;123.25;35.90;;;;;;;;;;6282705;22;20000;-83
2022/11/15 07:09:05;;;;;;;107.40;35.45;;;;;;;;;;6283495;22;20019;-85
2022/11/15 07:11:33;;;;;;;116.82;34.78;;;;;;;;;;6283808;22;20061;-84
2022/11/15 07:14:00;;;;;;;111.00;34.00;;;;;;;;;;6255793;22;20011;-85
2022/11/15 07:16:26;;;;;;;110.38;37.55;;;;;;;;;;6284639;22;20000;-83
2022/11/15 07:18:52;;;;;;;106.22;36.17;;;;;;;;;;6256548;22;20004;-84
2022/11/15 07:21:18;;;;;;;102.85;33.67;;;;;;;;;;6284728;22;20060;-85
2022/11/15 07:23:44;;;;;;;127.68;36.80;;;;;;;;;;6261183;22;20003;-84
2022/11/15 07:26:10;;;;;;;121.90;37.75;;;;;;;;;;6285652;22;20000;-83
2022/11/15 07:28:36;;;;;;;112.55;36.25;;;;;;;;;;6283123;22;19999;-83
2022/11/15 07:31:06;;;;;;;113.25;37.53;;;;;;;;;;6284667;22;20007;-84
2022/11/15 07:33:33;;;;;;;122.43;37.30;;;;;;;;;;6260368;22;20060;-85
2022/11/15 07:36:01;;;;;;;111.93;36.83;;;;;;;;;;6286796;22;20003;-85
2022/11/15 07:38:27;;;;;;;113.18;37.50;;;;;;;;;;6258492;22;20000;-85
2022/11/15 07:41:00;;;;;;;110.40;36.95;;;;;;;;;;6283138;22;20474;-84
2022/11/15 07:43:30;;;;;;;123.32;36.40;;;;;;;;;;6256632;22;20014;-84
2022/11/15 07:45:56;;;;;;;111.38;35.22;;;;;;;;;;6283717;22;20015;-84
2022/11/15 07:48:22;;;;;;;110.20;34.40;;;;;;;;;;6283507;22;20026;-83
2022/11/15 07:50:48;;;;;;;107.85;35.58;;;;;;;;;;6258848;22;20029;-85
2022/11/15 07:53:14;;;;;;;118.97;36.28;;;;;;;;;;6284484;22;20003;-85
2022/11/15 07:55:41;;;;;;;114.05;37.33;;;;;;;;;;6283500;22;19999;-84
2022/11/15 07:58:09;;;;;;;113.25;35.88;;;;;;;;;;6280811;22;19999;-83
2022/11/15 08:00:35;;;;;;;116.35;38.78;;;;;;;;;;6256974;22;20366;-84
2022/11/15 08:03:21;;;;;;;126.15;37.13;;;;;;;;;;6256659;22;20012;-81
2022/11/15 08:05:50;;;;;;;144.88;41.53;;;;;;;;;;6256650;22;20004;-83
2022/11/15 08:08:17;;;;;;;128.55;41.10;;;;;;;;;;6254546;22;20031;-85
2022/11/15 08:10:43;;;;;;;144.60;42.55;;;;;;;;;;6259136;22;20075;-84
2022/11/15 08:13:11;;;;;;;110.97;38.67;;;;;;;;;;6285584;22;20087;-84
2022/11/15 08:15:37;;;;;;;136.77;38.67;;;;;;;;;;6283073;22;20328;-83
2022/11/15 08:18:05;;;;;;;123.25;38.97;;;;;;;;;;6256432;22;20007;-84
2022/11/15 08:20:31;;;;;;;116.35;38.22;;;;;;;;;;6284233;22;20004;-84
2022/11/15 08:22:58;;;;;;;123.97;37.03;;;;;;;;;;6284155;22;20006;-84
2022/11/15 08:25:26;;;;;;;110.88;37.40;;;;;;;;;;6282597;22;20514;-82
2022/11/15 08:27:53;;;;;;;119.63;36.70;;;;;;;;;;6253193;22;20073;-83
2022/11/15 08:30:19;;;;;;;121.10;38.95;;;;;;;;;;6250226;22;19999;-82
2022/11/15 08:32:45;;;;;;;128.32;39.63;;;;;;;;;;6251661;22;20011;-82
2022/11/15 08:35:11;;;;;;;118.32;38.05;;;;;;;;;;6277559;22;20118;-83
2022/11/15 08:37:37;;;;;;;125.20;38.50;;;;;;;;;;6254484;22;20007;-82
2022/11/15 08:40:04;;;;;;;120.95;39.65;;;;;;;;;;6254138;22;20010;-82
2022/11/15 08:42:30;;;;;;;108.40;36.33;;;;;;;;;;6281483;22;20003;-82
2022/11/15 08:44:56;;;;;;;131.63;40.33;;;;;;;;;;6254696;22;20117;-82
2022/11/15 08:47:22;;;;;;;131.07;38.40;;;;;;;;;;6255165;22;20003;-81
2022/11/15 08:49:48;;;;;;;127.18;39.25;;;;;;;;;;6281035;22;20058;-82
2022/11/15 08:52:14;;;;;;;123.18;38.40;;;;;;;;;;6281793;22;20010;-82
2022/11/15 08:54:40;;;;;;;124.15;37.40;;;;;;;;;;6281257;22;20083;-82
2022/11/15 08:57:06;;;;;;;113.47;36.08;;;;;;;;;;6282126;22;20008;-83
2022/11/15 08:59:33;;;;;;;110.68;36.47;;;;;;;;;;6280375;22;20000;-82
2022/11/15 09:01:58;;;;;;;115.53;35.22;;;;;;;;;;6281333;22;19999;-84
2022/11/15 09:04:24;;;;;;;115.68;37.58;;;;;;;;;;6283713;22;20021;-81
2022/11/15 09:06:51;;;;;;;110.47;39.78;;;;;;;;;;6298270;22;20282;-80
2022/11/15 09:09:17;;;;;;;117.50;36.03;;;;;;;;;;6296540;22;20024;-82
2022/11/15 09:11:43;;;;;;;103.47;36.58;;;;;;;;;;6283013;22;20029;-82
2022/11/15 09:14:11;;;;;;;115.85;35.58;;;;;;;;;;6285593;22;20003;-81
2022/11/15 09:16:37;;;;;;;117.40;35.47;;;;;;;;;;6286690;22;20145;-82
2022/11/15 09:19:03;;;;;;;124.55;38.92;;;;;;;;;;6281247;22;20069;-83
2022/11/15 09:21:29;;;;;;;119.07;39.30;;;;;;;;;;6279554;22;20309;-82
2022/11/15 09:23:55;;;;;;;102.53;35.42;;;;;;;;;;6279878;22;20014;-82
2022/11/15 09:26:21;;;;;;;120.55;38.15;;;;;;;;;;6283874;22;20401;-82
2022/11/15 09:28:47;;;;;;;117.57;39.35;;;;;;;;;;6284529;22;20004;-83
2022/11/15 09:31:13;;;;;;;118.47;38.22;;;;;;;;;;6283091;22;20448;-82
2022/11/15 09:33:39;;;;;;;123.47;41.20;;;;;;;;;;6282682;22;19996;-84
2022/11/15 09:36:07;;;;;;;107.55;37.17;;;;;;;;;;6281340;22;20022;-83
2022/11/15 09:38:33;;;;;;;117.18;37.38;;;;;;;;;;6280672;22;20006;-81
2022/11/15 09:41:14;;;;;;;108.50;37.72;;;;;;;;;;6253697;22;20003;-82
2022/11/15 09:43:53;;;;;;;115.32;38.53;;;;;;;;;;6283430;22;19999;-82
2022/11/15 09:46:29;;;;;;;110.03;37.45;;;;;;;;;;6283651;22;20000;-82
2022/11/15 09:48:57;;;;;;;115.63;39.88;;;;;;;;;;6283265;22;20269;-82
2022/11/15 09:51:28;;;;;;;109.70;36.22;;;;;;;;;;6282505;22;19996;-82
2022/11/15 09:53:54;;;;;;;127.95;40.88;;;;;;;;;;6282767;22;20121;-82
2022/11/15 09:56:20;;;;;;;110.13;35.97;;;;;;;;;;6256585;22;20061;-83
2022/11/15 09:58:52;;;;;;;109.80;37.25;;;;;;;;;;6283385;22;19996;-83
2022/11/15 10:01:25;;;;;;;124.77;41.37;;;;;;;;;;6281931;22;20480;-82
2022/11/15 10:03:50;;;;;;;;;;;;;;;;;;6284529;22;20234;-82
2022/11/15 10:06:23;;;;;;;112.82;35.10;;;;;;;;;;6255472;22;19899;-82
2022/11/15 10:08:49;;;;;;;120.85;37.40;;;;;;;;;;6282369;22;20000;-82
2022/11/15 10:11:35;;;;;;;120.88;38.08;;;;;;;;;;6281100;22;20052;-82
2022/11/15 10:14:02;;;;;;;119.43;37.13;;;;;;;;;;6281274;22;19996;-82
2022/11/15 10:16:28;;;;;;;116.70;37.72;;;;;;;;;;6254278;22;20035;-81
2022/11/15 10:19:02;;;;;;;123.05;38.63;;;;;;;;;;6282148;22;20000;-83
2022/11/15 10:21:38;;;;;;;110.90;36.17;;;;;;;;;;6281452;22;20000;-82
2022/11/15 10:24:11;;;;;;;135.73;39.67;;;;;;;;;;6280900;22;20211;-82
2022/11/15 10:26:37;;;;;;;;;;;;;;;;;;6252023;22;20051;-82
2022/11/15 10:29:03;;;;;;;119.53;37.40;;;;;;;;;;6277795;22;19903;-81
2022/11/15 10:31:29;;;;;;;109.57;38.08;;;;;;;;;;6280855;22;20313;-81
2022/11/15 10:34:22;;;;;;;121.85;41.78;;;;;;;;;;6281771;22;20026;-82
2022/11/15 10:36:57;;;;;;;123.93;39.40;;;;;;;;;;6275554;22;20010;-82
2022/11/15 10:39:23;;;;;;;127.13;41.53;;;;;;;;;;6255634;22;20026;-81
2022/11/15 10:41:50;;;;;;;133.93;45.30;;;;;;;;;;6256480;22;20000;-81
2022/11/15 10:44:27;;;;;;;124.78;43.42;;;;;;;;;;6256382;22;20020;-82
2022/11/15 10:46:56;;;;;;;116.80;40.25;;;;;;;;;;6283089;22;19999;-82
2022/11/15 10:49:30;;;;;;;152.40;43.60;;;;;;;;;;6282437;22;20017;-82
2022/11/15 10:52:00;;;;;;;127.07;42.63;;;;;;;;;;6283953;22;20075;-81
2022/11/15 10:55:02;;;;;;;131.73;42.22;;;;;;;;;;6284261;22;19996;-81
2022/11/15 10:57:33;;;;;;;126.68;40.90;;;;;;;;;;6130060;23;20010;-82
2022/11/15 11:00:05;;;;;;;130.32;41.65;;;;;;;;;;6245005;22;20089;-80
2022/11/15 11:02:38;;;;;;;127.85;42.25;;;;;;;;;;6297377;22;20003;-80
2022/11/15 11:05:06;;;;;;;125.35;39.72;;;;;;;;;;6273099;22;20007;-80
2022/11/15 11:07:33;;;;;;;126.50;42.53;;;;;;;;;;6298155;22;20018;-81
2022/11/15 11:10:01;;;;;;;134.63;42.58;;;;;;;;;;6289549;22;20003;-81
2022/11/15 11:12:31;;;;;;;130.63;41.60;;;;;;;;;;6287455;22;20025;-82
2022/11/15 11:14:58;;;;;;;132.93;42.47;;;;;;;;;;6283954;22;20023;-82
2022/11/15 11:17:25;;;;;;;116.28;44.05;;;;;;;;;;6283625;22;20045;-81
2022/11/15 11:20:24;;;;;;;127.28;45.70;;;;;;;;;;6284870;22;20002;-82
2022/11/15 11:23:09;;;;;;;141.90;42.38;;;;;;;;;;6106960;23;20079;-81
2022/11/15 11:25:36;;;;;;;132.65;41.38;;;;;;;;;;6108888;23;20027;-82
2022/11/15 11:28:14;;;;;;;144.88;41.10;;;;;;;;;;6135642;23;20009;-81
2022/11/15 11:30:40;;;;;;;121.15;38.75;;;;;;;;;;6111328;23;20017;-81
2022/11/15 11:33:09;;;;;;;118.50;39.03;;;;;;;;;;6143392;23;20009;-80
2022/11/15 11:35:50;;;;;;;120.00;38.28;;;;;;;;;;6139619;23;20006;-81
2022/11/15 11:38:19;;;;;;;107.43;35.50;;;;;;;;;;6133134;23;20010;-81
2022/11/15 11:40:55;;;;;;;117.00;38.15;;;;;;;;;;6127110;23;20069;-81
2022/11/15 11:43:24;;;;;;;112.38;35.20;;;;;;;;;;6105046;23;20409;-81
2022/11/15 11:45:59;;;;;;;115.50;37.15;;;;;;;;;;6101563;23;20018;-81
2022/11/15 11:48:40;;;;;;;117.95;39.00;;;;;;;;;;6076506;23;20011;-82
2022/11/15 11:51:10;;;;;;;125.88;38.05;;;;;;;;;;6075844;23;20006;-81
2022/11/15 11:53:49;;;;;;;109.35;36.33;;;;;;;;;;6100777;23;20041;-81
2022/11/15 11:56:24;;;;;;;113.25;37.95;;;;;;;;;;6097556;23;20542;-82
2022/11/15 11:58:50;;;;;;;120.13;37.25;;;;;;;;;;6177069;23;20012;-82
2022/11/15 12:01:25;;;;;;;114.65;36.22;;;;;;;;;;6249398;23;20001;-82
2022/11/15 12:03:57;;;;;;;119.35;36.53;;;;;;;;;;6251270;23;20000;-81
2022/11/15 12:06:36;;;;;;;121.40;40.50;;;;;;;;;;6252505;23;20079;-81
2022/11/15 12:09:02;;;;;;;113.82;36.70;;;;;;;;;;6223256;23;20035;-82
2022/11/15 12:11:43;;;;;;;116.20;38.25;;;;;;;;;;6251264;23;19996;-82
2022/11/15 12:14:28;;;;;;;121.25;38.53;;;;;;;;;;6253702;23;20336;-82
2022/11/15 12:16:54;;;;;;;119.25;37.45;;;;;;;;;;6254148;23;19996;-82
2022/11/15 12:19:20;;;;;;;118.85;38.50;;;;;;;;;;6254599;23;19996;-81
2022/11/15 12:21:53;;;;;;;114.47;38.65;;;;;;;;;;6252414;23;20043;-82
2022/11/15 12:24:39;;;;;;;110.63;37.22;;;;;;;;;;6230676;22;19988;-79
2022/11/15 12:27:17;;;;;;;123.20;38.90;;;;;;;;;;6274347;22;20042;-80
2022/11/15 12:29:48;;;;;;;122.18;42.08;;;;;;;;;;6265651;23;20000;-82
2022/11/15 12:32:35;;;;;;;122.63;38.97;;;;;;;;;;6267668;23;20007;-80
2022/11/15 12:35:02;;;;;;;125.88;39.97;;;;;;;;;;6228644;23;20047;-82
2022/11/15 12:37:37;;;;;;;139.35;41.45;;;;;;;;;;6227266;23;20035;-82
2022/11/15 12:40:06;;;;;;;119.80;39.55;;;;;;;;;;6253879;23;20007;-82
2022/11/15 12:42:35;;;;;;;122.65;40.83;;;;;;;;;;6226602;23;20459;-81
2022/11/15 12:45:01;;;;;;;121.63;38.88;;;;;;;;;;6272124;22;20489;-82
2022/11/15 12:47:27;;;;;;;127.45;41.60;;;;;;;;;;6257443;22;19996;-81
2022/11/15 12:49:53;;;;;;;134.10;42.00;;;;;;;;;;6258217;22;20035;-81
2022/11/15 12:52:19;;;;;;;130.23;42.30;;;;;;;;;;6285870;22;20000;-82
2022/11/15 12:54:53;;;;;;;125.00;40.90;;;;;;;;;;6258310;22;20007;-80
2022/11/15 12:57:28;;;;;;;137.52;42.13;;;;;;;;;;6258079;22;20006;-80
2022/11/15 12:59:58;;;;;;;121.28;41.75;;;;;;;;;;6285542;22;19995;-80
2022/11/15 13:02:29;;;;;;;137.60;43.50;;;;;;;;;;6289186;22;20038;-82
2022/11/15 13:05:19;;;;;;;124.28;41.33;;;;;;;;;;6258420;22;20082;-85
2022/11/15 13:07:45;;;;;;;130.48;41.30;;;;;;;;;;6284459;22;19999;-83
2022/11/15 13:10:11;;;;;;;140.32;41.65;;;;;;;;;;6286727;22;20002;-81
2022/11/15 13:12:40;;;;;;;135.23;44.20;;;;;;;;;;6285722;22;20051;-82
2022/11/15 13:15:12;;;;;;;127.38;42.35;;;;;;;;;;6284262;22;19999;-82
2022/11/15 13:17:45;;;;;;;149.90;46.22;;;;;;;;;;6286186;22;20000;-83
2022/11/15 13:20:14;;;;;;;128.13;42.08;;;;;;;;;;6260243;22;20331;-82
2022/11/15 13:22:54;;;;;;;130.13;44.45;;;;;;;;;;6286106;22;20003;-84
2022/11/15 13:25:20;;;;;;;131.52;44.72;;;;;;;;;;6260218;22;20096;-83
2022/11/15 13:27:50;;;;;;;135.98;46.15;;;;;;;;;;6285933;22;20003;-83
2022/11/15 13:30:24;;;;;;;140.07;46.95;;;;;;;;;;6288501;22;20049;-84
2022/11/15 13:32:50;;;;;;;134.93;45.95;;;;;;;;;;6260665;22;20015;-83
2022/11/15 13:35:24;;;;;;;127.65;45.30;;;;;;;;;;6260478;22;20034;-82
2022/11/15 13:37:51;;;;;;;135.98;45.28;;;;;;;;;;6287116;22;20007;-80
2022/11/15 13:40:22;;;;;;;135.25;44.90;;;;;;;;;;6286789;22;20023;-83
2022/11/15 13:42:48;;;;;;;137.65;45.10;;;;;;;;;;6286729;22;20313;-83
2022/11/15 13:45:16;;;;;;;141.27;44.05;;;;;;;;;;6260828;22;20013;-83
2022/11/15 13:47:42;;;;;;;128.85;44.03;;;;;;;;;;6289156;22;20011;-84
2022/11/15 13:50:12;;;;;;;131.15;44.85;;;;;;;;;;6260332;22;20000;-83
2022/11/15 13:52:40;;;;;;;139.00;44.72;;;;;;;;;;6287080;22;20007;-83
2022/11/15 13:55:13;;;;;;;120.45;42.90;;;;;;;;;;6288479;22;20011;-82
2022/11/15 13:57:56;;;;;;;124.45;42.30;;;;;;;;;;6262173;22;20327;-83
2022/11/15 14:00:27;;;;;;;130.57;43.28;;;;;;;;;;6289205;22;20004;-83
2022/11/15 14:02:54;;;;;;;133.82;42.38;;;;;;;;;;6259748;22;20042;-83
2022/11/15 14:05:21;;;;;;;119.40;46.65;;;;;;;;;;6287930;22;20506;-84
2022/11/15 14:07:57;;;;;;;121.28;44.05;;;;;;;;;;6287942;22;20022;-84
2022/11/15 14:10:28;;;;;;;130.30;43.80;;;;;;;;;;6261858;22;20011;-84
2022/11/15 14:12:54;;;;;;;110.13;39.90;;;;;;;;;;6261062;22;20008;-84
2022/11/15 14:15:35;;;;;;;119.45;41.97;;;;;;;;;;6287956;22;20000;-84
2022/11/15 14:18:01;;;;;;;124.10;42.80;;;;;;;;;;6289140;22;20014;-82
2022/11/15 14:20:27;;;;;;;113.85;42.20;;;;;;;;;;6290272;22;20052;-84
2022/11/15 14:22:54;;;;;;;105.75;42.45;;;;;;;;;;6289061;22;20296;-84
2022/11/15 14:25:40;;;;;;;118.03;44.15;;;;;;;;;;6260302;22;19999;-83